createdAt,value
2023-05-14T00:01:03.206Z,91.12
2023-05-14T00:03:30.027Z,91.14
2023-05-14T00:05:56.694Z,91.38
2023-05-14T00:08:23.260Z,90.41
2023-05-14T00:10:49.835Z,90.74
2023-05-14T00:13:16.450Z,91.21
2023-05-14T00:15:43.023Z,91.60
2023-05-14T00:18:12.174Z,91.72
2023-05-14T00:20:38.757Z,91.44
2023-05-14T00:23:05.333Z,93.17
2023-05-14T00:25:31.997Z,93.82
2023-05-14T00:27:58.596Z,94.21
2023-05-14T00:30:25.771Z,96.14
2023-05-14T00:32:52.664Z,96.77
2023-05-14T00:35:20.456Z,97.39
2023-05-14T00:37:47.625Z,96.71
2023-05-14T00:40:14.586Z,97.58
2023-05-14T00:42:41.157Z,98.18
2023-05-14T00:45:08.392Z,98.03
2023-05-14T00:47:35.024Z,99.92
2023-05-14T00:50:03.563Z,98.88
2023-05-14T00:52:30.188Z,99.82
2023-05-14T00:54:57.156Z,99.01
2023-05-14T00:57:23.746Z,97.24
2023-05-14T00:59:50.741Z,98.49
2023-05-14T01:03:54.251Z,100.00
2023-05-14T01:06:30.125Z,100.00
2023-05-14T01:09:08.950Z,99.41
2023-05-14T01:11:47.667Z,99.62
2023-05-14T01:14:22.782Z,100.00
2023-05-14T01:16:53.140Z,99.60
2023-05-14T01:19:37.231Z,97.51
2023-05-14T01:22:03.949Z,96.39
2023-05-14T01:24:30.516Z,96.84
2023-05-14T01:27:18.599Z,95.18
2023-05-14T01:29:58.043Z,94.53
2023-05-14T01:32:25.699Z,94.15
2023-05-14T01:34:55.918Z,95.00
2023-05-14T01:37:22.974Z,94.37
2023-05-14T01:39:51.859Z,95.20
2023-05-14T01:42:18.287Z,93.89
2023-05-14T01:44:45.266Z,94.50
2023-05-14T01:47:11.961Z,93.26
2023-05-14T01:49:38.570Z,94.41
2023-05-14T01:52:05.658Z,95.02
2023-05-14T01:54:32.241Z,94.68
2023-05-14T01:56:58.789Z,93.39
2023-05-14T01:59:25.420Z,94.85
2023-05-14T02:01:52.049Z,99.97
2023-05-14T02:04:19.205Z,99.74
2023-05-14T02:06:45.872Z,99.47
2023-05-14T02:09:12.463Z,97.21
2023-05-14T02:11:39.021Z,97.58
2023-05-14T02:14:05.767Z,96.90
2023-05-14T02:16:32.422Z,98.08
2023-05-14T02:18:59.146Z,100.00
2023-05-14T02:21:25.793Z,99.66
2023-05-14T02:23:52.435Z,100.00
2023-05-14T02:26:19.049Z,100.00
2023-05-14T02:28:45.905Z,100.00
2023-05-14T02:31:12.498Z,100.00
2023-05-14T02:33:39.187Z,100.00
2023-05-14T02:36:06.103Z,100.00
2023-05-14T02:38:32.637Z,100.00
2023-05-14T02:40:59.322Z,100.00
2023-05-14T02:43:25.981Z,100.00
2023-05-14T02:45:52.621Z,100.00
2023-05-14T02:48:19.455Z,100.00
2023-05-14T02:50:46.931Z,100.00
2023-05-14T02:53:13.530Z,100.00
2023-05-14T02:55:40.156Z,100.00
2023-05-14T02:58:06.657Z,100.00
2023-05-14T03:00:33.323Z,100.00
2023-05-14T03:03:00.282Z,100.00
2023-05-14T03:05:27.187Z,100.00
2023-05-14T03:07:53.933Z,100.00
2023-05-14T03:10:20.821Z,100.00
2023-05-14T03:12:47.697Z,100.00
2023-05-14T03:15:14.396Z,100.00
2023-05-14T03:17:41.017Z,100.00
2023-05-14T03:20:07.952Z,100.00
2023-05-14T03:22:34.617Z,97.79
2023-05-14T03:25:01.153Z,96.86
2023-05-14T03:27:27.786Z,96.55
2023-05-14T03:29:54.351Z,100.00
2023-05-14T03:32:21.375Z,100.00
2023-05-14T03:34:48.079Z,100.00
2023-05-14T03:37:14.733Z,100.00
2023-05-14T03:39:41.279Z,100.00
2023-05-14T03:42:07.870Z,100.00
2023-05-14T03:44:34.443Z,100.00
2023-05-14T03:47:01.099Z,100.00
2023-05-14T03:49:27.642Z,100.00
2023-05-14T03:51:54.209Z,100.00
2023-05-14T03:54:20.816Z,100.00
2023-05-14T03:56:47.544Z,100.00
2023-05-14T03:59:14.140Z,100.00
2023-05-14T04:01:40.698Z,100.00
2023-05-14T04:04:07.396Z,100.00
2023-05-14T04:06:34.077Z,100.00
2023-05-14T04:09:00.690Z,100.00
2023-05-14T04:11:27.214Z,100.00
2023-05-14T04:13:53.865Z,100.00
2023-05-14T04:16:20.495Z,100.00
2023-05-14T04:18:47.139Z,100.00
2023-05-14T04:21:13.769Z,100.00
2023-05-14T04:23:40.286Z,100.00
2023-05-14T04:26:06.889Z,100.00
2023-05-14T04:28:33.548Z,100.00
2023-05-14T04:31:00.331Z,100.00
2023-05-14T04:33:26.947Z,100.00
2023-05-14T04:35:53.729Z,100.00
2023-05-14T04:38:20.475Z,100.00
2023-05-14T04:40:47.034Z,100.00
2023-05-14T04:43:13.589Z,100.00
2023-05-14T04:45:41.172Z,100.00
2023-05-14T04:48:07.976Z,100.00
2023-05-14T04:50:35.083Z,100.00
2023-05-14T04:53:01.700Z,100.00
2023-05-14T04:55:28.382Z,100.00
2023-05-14T04:57:55.244Z,100.00
2023-05-14T05:00:22.355Z,100.00
2023-05-14T05:02:49.251Z,100.00
2023-05-14T05:05:15.982Z,100.00
2023-05-14T05:07:42.531Z,100.00
2023-05-14T05:10:09.537Z,100.00
2023-05-14T05:12:36.111Z,100.00
2023-05-14T05:15:02.748Z,100.00
2023-05-14T05:17:30.111Z,100.00
2023-05-14T05:19:56.841Z,100.00
2023-05-14T05:22:24.331Z,100.00
2023-05-14T05:24:50.921Z,100.00
2023-05-14T05:27:17.524Z,100.00
2023-05-14T05:29:44.591Z,100.00
2023-05-14T05:32:11.178Z,100.00
2023-05-14T05:34:37.759Z,100.00
2023-05-14T05:37:06.063Z,100.00
2023-05-14T05:39:35.095Z,100.00
2023-05-14T05:42:02.763Z,100.00
2023-05-14T05:44:29.431Z,100.00
2023-05-14T05:46:58.796Z,100.00
2023-05-14T05:49:26.193Z,100.00
2023-05-14T05:51:52.795Z,100.00
2023-05-14T05:54:19.382Z,100.00
2023-05-14T05:56:46.010Z,100.00
2023-05-14T05:59:12.661Z,98.29
2023-05-14T06:01:40.766Z,97.88
2023-05-14T06:04:07.498Z,97.91
2023-05-14T06:06:34.183Z,97.73
2023-05-14T06:09:01.894Z,98.87
2023-05-14T06:11:28.558Z,98.31
2023-05-14T06:13:55.141Z,96.11
2023-05-14T06:16:21.976Z,97.05
2023-05-14T06:18:48.688Z,98.11
2023-05-14T06:21:15.425Z,96.29
2023-05-14T06:23:42.113Z,95.66
2023-05-14T06:26:08.712Z,95.49
2023-05-14T06:28:35.396Z,97.07
2023-05-14T06:31:01.995Z,96.21
2023-05-14T06:33:31.549Z,96.03
2023-05-14T06:35:59.670Z,95.68
2023-05-14T06:38:26.368Z,96.18
2023-05-14T06:40:55.923Z,95.38
2023-05-14T06:43:22.863Z,96.19
2023-05-14T06:45:50.217Z,95.37
2023-05-14T06:48:18.901Z,95.42
2023-05-14T06:50:45.955Z,95.57
2023-05-14T06:53:12.596Z,94.77
2023-05-14T06:55:39.601Z,95.26
2023-05-14T06:58:07.663Z,94.44
2023-05-14T07:00:34.317Z,93.47
2023-05-14T07:03:01.175Z,92.12
2023-05-14T07:05:27.813Z,91.55
2023-05-14T07:07:54.519Z,91.26
2023-05-14T07:10:21.458Z,89.26
2023-05-14T07:12:48.735Z,90.32
2023-05-14T07:15:15.854Z,90.27
2023-05-14T07:17:42.627Z,91.06
2023-05-14T07:20:09.839Z,90.12
2023-05-14T07:22:36.428Z,91.04
2023-05-14T07:25:03.207Z,90.85
2023-05-14T07:27:29.904Z,91.85
2023-05-14T07:29:56.466Z,92.11
2023-05-14T07:32:25.159Z,92.57
2023-05-14T07:34:51.784Z,93.63
2023-05-14T07:37:18.968Z,92.68
2023-05-14T07:39:45.577Z,94.15
2023-05-14T07:42:19.398Z,93.86
2023-05-14T07:44:51.967Z,93.10
2023-05-14T07:47:18.604Z,93.37
2023-05-14T07:49:45.325Z,94.55
2023-05-14T07:52:12.014Z,95.40
2023-05-14T07:54:38.765Z,95.68
2023-05-14T07:57:05.369Z,96.27
2023-05-14T07:59:32.141Z,95.88
2023-05-14T08:01:58.784Z,96.32
2023-05-14T08:04:25.478Z,96.78
2023-05-14T08:06:52.116Z,95.77
2023-05-14T08:09:18.717Z,97.13
2023-05-14T08:11:45.325Z,97.90
2023-05-14T08:14:12.029Z,98.60
2023-05-14T08:16:38.893Z,98.80
2023-05-14T08:19:05.700Z,100.00
2023-05-14T08:21:32.844Z,100.00
2023-05-14T08:23:59.515Z,100.00
2023-05-14T08:26:26.629Z,100.00
2023-05-14T08:28:54.744Z,99.76
2023-05-14T08:31:21.340Z,100.00
2023-05-14T08:33:47.926Z,98.64
2023-05-14T08:36:14.464Z,99.98
2023-05-14T08:38:42.109Z,98.55
2023-05-14T08:41:09.059Z,98.94
2023-05-14T08:43:59.621Z,98.48
2023-05-14T08:46:29.117Z,97.68
2023-05-14T08:49:15.628Z,96.97
2023-05-14T08:51:44.552Z,96.34
2023-05-14T08:54:15.389Z,97.22
2023-05-14T08:56:42.363Z,97.53
2023-05-14T08:59:08.854Z,97.12
2023-05-14T09:01:37.316Z,94.68
2023-05-14T09:04:08.375Z,95.37
2023-05-14T09:06:38.890Z,95.83
2023-05-14T09:09:06.522Z,95.72
2023-05-14T09:11:33.151Z,95.23
2023-05-14T09:14:00.219Z,96.06
2023-05-14T09:16:27.109Z,95.92
2023-05-14T09:18:54.550Z,96.09
2023-05-14T09:21:21.194Z,95.84
2023-05-14T09:23:49.703Z,94.95
2023-05-14T09:26:18.731Z,93.82
2023-05-14T09:28:45.269Z,92.39
2023-05-14T09:31:11.882Z,91.69
2023-05-14T09:33:38.713Z,91.57
2023-05-14T09:36:05.730Z,92.51
2023-05-14T09:38:33.498Z,91.94
2023-05-14T09:41:00.965Z,91.86
2023-05-14T09:43:27.558Z,92.86
2023-05-14T09:45:54.143Z,91.65
2023-05-14T09:48:22.449Z,89.44
2023-05-14T09:50:49.281Z,90.41
2023-05-14T09:53:15.945Z,89.71
2023-05-14T09:55:42.628Z,89.28
2023-05-14T09:58:09.221Z,86.98
2023-05-14T10:00:36.751Z,86.21
2023-05-14T10:03:08.171Z,86.17
2023-05-14T10:05:39.954Z,86.10
2023-05-14T10:08:19.940Z,84.01
2023-05-14T10:10:46.633Z,85.08
2023-05-14T10:13:22.193Z,83.90
2023-05-14T10:15:52.075Z,83.30
2023-05-14T10:18:20.186Z,81.72
2023-05-14T10:21:03.842Z,81.91
2023-05-14T10:23:31.070Z,82.64
2023-05-14T10:25:58.712Z,82.49
2023-05-14T10:28:25.909Z,81.88
2023-05-14T10:30:54.116Z,80.65
2023-05-14T10:33:21.072Z,81.07
2023-05-14T10:35:52.632Z,79.37
2023-05-14T10:38:23.346Z,79.26
2023-05-14T10:40:51.599Z,78.97
2023-05-14T10:43:20.343Z,78.42
2023-05-14T10:45:47.116Z,79.01
2023-05-14T10:48:14.497Z,78.78
2023-05-14T10:50:42.079Z,76.16
2023-05-14T10:53:13.249Z,78.30
2023-05-14T10:55:40.065Z,76.58
2023-05-14T10:58:07.717Z,73.58
2023-05-14T11:00:35.433Z,74.54
2023-05-14T11:03:05.321Z,73.24
2023-05-14T11:05:33.139Z,75.59
2023-05-14T11:08:01.109Z,74.55
2023-05-14T11:10:30.005Z,73.61
2023-05-14T11:12:57.610Z,75.40
2023-05-14T11:15:29.190Z,74.99
2023-05-14T11:17:55.854Z,73.23
2023-05-14T11:20:22.760Z,71.23
2023-05-14T11:22:51.717Z,68.24
2023-05-14T11:25:18.989Z,69.78
2023-05-14T11:27:47.508Z,71.83
2023-05-14T11:30:19.312Z,70.94
2023-05-14T11:32:48.904Z,74.12
2023-05-14T11:35:16.520Z,71.97
2023-05-14T11:37:44.059Z,74.11
2023-05-14T11:40:16.545Z,69.62
2023-05-14T11:42:43.175Z,71.40
2023-05-14T11:45:14.064Z,70.86
2023-05-14T11:47:43.576Z,69.49
2023-05-14T11:50:11.166Z,71.66
2023-05-14T11:52:40.451Z,71.45
2023-05-14T11:55:11.668Z,72.38
2023-05-14T11:57:38.355Z,73.24
2023-05-14T12:00:08.636Z,74.06
2023-05-14T12:02:36.458Z,72.49
2023-05-14T12:05:03.340Z,72.63
2023-05-14T12:07:30.820Z,75.45
2023-05-14T12:10:01.562Z,75.14
2023-05-14T12:12:28.119Z,72.10
2023-05-14T12:14:54.717Z,73.59
2023-05-14T12:17:22.920Z,75.64
2023-05-14T12:19:51.441Z,74.23
2023-05-14T12:22:22.496Z,74.52
2023-05-14T12:24:54.864Z,74.17
2023-05-14T12:27:29.597Z,75.75
2023-05-14T12:30:19.992Z,74.02
2023-05-14T12:32:51.618Z,72.93
2023-05-14T12:35:18.542Z,68.49
2023-05-14T12:37:45.206Z,68.69
2023-05-14T12:40:12.083Z,71.84
2023-05-14T12:42:38.654Z,73.10
2023-05-14T12:45:07.898Z,70.37
2023-05-14T12:47:35.313Z,71.46
2023-05-14T12:50:02.233Z,73.47
2023-05-14T12:52:37.392Z,72.18
2023-05-14T12:55:06.784Z,74.15
2023-05-14T12:57:35.265Z,74.04
2023-05-14T13:00:02.463Z,71.30
2023-05-14T13:02:29.177Z,71.34
2023-05-14T13:04:55.759Z,70.07
2023-05-14T13:07:22.373Z,71.11
2023-05-14T13:09:48.974Z,70.85
2023-05-14T13:12:15.645Z,70.96
2023-05-14T13:14:42.162Z,70.55
2023-05-14T13:17:08.770Z,70.36
2023-05-14T13:19:35.497Z,69.79
2023-05-14T13:22:02.121Z,69.82
2023-05-14T13:24:28.692Z,69.23
2023-05-14T13:26:55.277Z,71.36
2023-05-14T13:29:21.847Z,69.41
2023-05-14T13:31:48.432Z,70.38
2023-05-14T13:34:15.058Z,70.30
2023-05-14T13:36:43.695Z,70.55
2023-05-14T13:39:14.633Z,70.65
2023-05-14T13:41:41.672Z,69.65
2023-05-14T13:44:08.386Z,71.24
2023-05-14T13:46:35.076Z,71.33
2023-05-14T13:49:01.866Z,73.02
2023-05-14T13:51:28.470Z,70.58
2023-05-14T13:56:26.415Z,71.78
2023-05-14T13:58:53.085Z,71.03
2023-05-14T14:01:19.678Z,71.98
2023-05-14T14:03:46.334Z,69.00
2023-05-14T14:06:12.965Z,70.72
2023-05-14T14:08:39.634Z,71.76
2023-05-14T14:11:06.337Z,70.93
2023-05-14T14:13:33.009Z,70.55
2023-05-14T14:15:59.639Z,70.97
2023-05-14T14:18:26.908Z,69.43
2023-05-14T14:20:53.609Z,72.00
2023-05-14T14:23:20.360Z,70.64
2023-05-14T14:25:46.885Z,70.68
2023-05-14T14:28:13.715Z,71.04
2023-05-14T14:30:40.422Z,72.83
2023-05-14T14:33:07.085Z,73.37
2023-05-14T14:35:35.427Z,73.29
2023-05-14T14:38:02.003Z,73.48
2023-05-14T14:40:29.689Z,72.02
2023-05-14T14:42:56.383Z,73.54
2023-05-14T14:45:23.226Z,74.52
2023-05-14T14:47:50.048Z,74.59
2023-05-14T14:50:16.633Z,75.08
2023-05-14T14:52:45.777Z,74.04
2023-05-14T14:55:12.895Z,74.93
2023-05-14T14:57:39.597Z,74.48
2023-05-14T15:00:07.329Z,74.50
2023-05-14T15:02:34.562Z,72.47
2023-05-14T15:05:01.387Z,72.64
2023-05-14T15:07:28.020Z,73.46
2023-05-14T15:09:54.693Z,71.22
2023-05-14T15:12:21.316Z,73.64
2023-05-14T15:14:47.944Z,75.27
2023-05-14T15:17:14.563Z,75.78
2023-05-14T15:19:41.254Z,76.47
2023-05-14T15:22:07.825Z,74.28
2023-05-14T15:24:34.363Z,74.06
2023-05-14T15:27:00.961Z,76.54
2023-05-14T15:29:28.699Z,77.08
2023-05-14T15:31:55.513Z,79.09
2023-05-14T15:34:22.246Z,80.17
2023-05-14T15:36:48.875Z,81.01
2023-05-14T15:39:15.438Z,81.93
2023-05-14T15:41:42.088Z,82.84
2023-05-14T15:44:08.670Z,83.25
2023-05-14T15:46:35.781Z,83.94
2023-05-14T15:49:02.433Z,85.25
2023-05-14T15:51:29.476Z,85.11
2023-05-14T15:53:56.095Z,86.84
2023-05-14T15:56:23.066Z,86.43
2023-05-14T15:58:49.884Z,87.04
2023-05-14T16:01:16.663Z,87.17
2023-05-14T16:03:43.610Z,88.15
2023-05-14T16:06:11.583Z,87.39
2023-05-14T16:08:38.523Z,88.31
2023-05-14T16:11:06.175Z,89.04
2023-05-14T16:13:32.839Z,89.58
2023-05-14T16:15:59.862Z,89.19
2023-05-14T16:18:26.743Z,91.94
2023-05-14T16:20:53.602Z,91.23
2023-05-14T16:23:20.208Z,92.04
2023-05-14T16:25:46.918Z,93.62
2023-05-14T16:28:13.769Z,94.21
2023-05-14T16:30:40.328Z,93.73
2023-05-14T16:33:07.060Z,95.56
2023-05-14T16:35:33.960Z,95.21
2023-05-14T16:38:00.672Z,96.14
2023-05-14T16:40:27.370Z,96.37
2023-05-14T16:42:53.914Z,95.89
2023-05-14T16:45:20.681Z,98.75
2023-05-14T16:47:47.219Z,98.50
2023-05-14T16:50:13.821Z,97.68
2023-05-14T16:52:40.481Z,96.37
2023-05-14T16:55:07.486Z,95.47
2023-05-14T16:57:34.640Z,97.14
2023-05-14T17:00:01.362Z,95.06
2023-05-14T17:02:27.996Z,94.83
2023-05-14T17:04:55.337Z,94.45
2023-05-14T17:07:22.058Z,94.54
2023-05-14T17:09:48.661Z,95.26
2023-05-14T17:12:15.436Z,92.87
2023-05-14T17:14:42.051Z,94.29
2023-05-14T17:17:08.683Z,93.81
2023-05-14T17:19:35.283Z,95.19
2023-05-14T17:22:01.874Z,95.35
2023-05-14T17:24:28.430Z,95.09
2023-05-14T17:26:55.007Z,93.99
2023-05-14T17:29:21.705Z,93.91
2023-05-14T17:31:48.703Z,95.29
2023-05-14T17:34:15.383Z,95.30
2023-05-14T17:36:42.000Z,94.24
2023-05-14T17:39:09.085Z,95.93
2023-05-14T17:41:35.616Z,94.99
2023-05-14T17:44:02.200Z,94.12
2023-05-14T17:46:28.913Z,94.06
2023-05-14T17:48:55.686Z,93.53
2023-05-14T17:51:22.302Z,94.05
2023-05-14T17:53:48.918Z,91.17
2023-05-14T17:56:17.541Z,91.99
2023-05-14T17:58:44.830Z,92.10
2023-05-14T18:01:11.680Z,93.10
2023-05-14T18:03:38.599Z,92.61
2023-05-14T18:06:05.447Z,90.79
2023-05-14T18:08:32.052Z,91.99
2023-05-14T18:11:00.751Z,92.86
2023-05-14T18:13:27.123Z,93.29
2023-05-14T18:15:54.412Z,93.34
2023-05-14T18:18:22.031Z,93.08
2023-05-14T18:20:49.514Z,93.75
2023-05-14T18:23:16.204Z,94.24
2023-05-14T18:25:43.057Z,92.78
2023-05-14T18:28:09.821Z,94.48
2023-05-14T18:30:36.404Z,94.97
2023-05-14T18:33:03.458Z,95.34
2023-05-14T18:35:30.244Z,95.50
2023-05-14T18:37:56.927Z,98.15
2023-05-14T18:40:23.686Z,99.55
2023-05-14T18:42:50.481Z,99.09
2023-05-14T18:45:17.122Z,98.82
2023-05-14T18:47:43.858Z,98.63
2023-05-14T18:50:10.634Z,98.81
2023-05-14T18:52:37.296Z,99.93
2023-05-14T18:55:04.205Z,99.74
2023-05-14T18:57:32.722Z,99.72
2023-05-14T19:00:01.945Z,97.67
2023-05-14T19:02:28.984Z,100.00
2023-05-14T19:04:55.693Z,99.23
2023-05-14T19:07:22.648Z,99.31
2023-05-14T19:09:49.387Z,98.65
2023-05-14T19:12:16.314Z,99.03
2023-05-14T19:14:42.945Z,99.74
2023-05-14T19:17:09.762Z,99.44
2023-05-14T19:19:36.835Z,100.00
2023-05-14T19:22:03.918Z,100.00
2023-05-14T19:24:30.650Z,100.00
2023-05-14T19:26:57.343Z,100.00
2023-05-14T19:29:24.123Z,100.00
2023-05-14T19:31:51.021Z,100.00
2023-05-14T19:34:17.607Z,100.00
2023-05-14T19:36:44.210Z,100.00
2023-05-14T19:39:11.241Z,100.00
2023-05-14T19:41:37.816Z,100.00
2023-05-14T19:44:04.321Z,100.00
2023-05-14T19:46:30.985Z,100.00
2023-05-14T19:48:57.541Z,100.00
2023-05-14T19:51:25.329Z,100.00
2023-05-14T19:53:51.949Z,100.00
2023-05-14T19:56:18.531Z,100.00
2023-05-14T19:58:45.137Z,100.00
2023-05-14T20:01:12.116Z,100.00
2023-05-14T20:03:38.989Z,100.00
2023-05-14T20:06:07.119Z,100.00
2023-05-14T20:08:33.780Z,100.00
2023-05-14T20:11:00.540Z,100.00
2023-05-14T20:13:27.172Z,100.00
2023-05-14T20:15:55.240Z,100.00
2023-05-14T20:18:22.059Z,100.00
2023-05-14T20:20:49.112Z,100.00
2023-05-14T20:23:15.757Z,100.00
2023-05-14T20:25:43.157Z,100.00
2023-05-14T20:28:10.311Z,100.00
2023-05-14T20:30:37.060Z,100.00
2023-05-14T20:33:04.092Z,100.00
2023-05-14T20:35:31.290Z,100.00
2023-05-14T20:37:57.978Z,100.00
2023-05-14T20:40:25.334Z,100.00
2023-05-14T20:42:52.225Z,100.00
2023-05-14T20:45:19.099Z,100.00
2023-05-14T20:47:45.710Z,100.00
2023-05-14T20:50:13.770Z,100.00
2023-05-14T20:52:40.775Z,100.00
2023-05-14T20:55:07.810Z,100.00
2023-05-14T20:57:34.484Z,100.00
2023-05-14T21:00:02.445Z,100.00
2023-05-14T21:02:29.098Z,100.00
2023-05-14T21:04:55.880Z,100.00
2023-05-14T21:07:22.833Z,100.00
2023-05-14T21:09:52.672Z,100.00
2023-05-14T21:12:19.638Z,100.00
2023-05-14T21:14:46.670Z,100.00
2023-05-14T21:17:13.276Z,100.00
2023-05-14T21:19:39.918Z,100.00
2023-05-14T21:22:07.092Z,100.00
2023-05-14T21:24:33.572Z,100.00
2023-05-14T21:27:00.337Z,100.00
2023-05-14T21:29:26.911Z,100.00
2023-05-14T21:31:53.598Z,100.00
2023-05-14T21:34:20.428Z,100.00
2023-05-14T21:36:47.485Z,100.00
2023-05-14T21:39:14.112Z,100.00
2023-05-14T21:41:40.705Z,100.00
2023-05-14T21:44:07.265Z,100.00
2023-05-14T21:46:33.841Z,100.00
2023-05-14T21:49:00.592Z,100.00
2023-05-14T21:51:27.294Z,100.00
2023-05-14T21:53:54.021Z,100.00
2023-05-14T21:56:21.169Z,100.00
2023-05-14T21:58:47.863Z,100.00
2023-05-14T22:01:14.670Z,100.00
2023-05-14T22:03:41.892Z,100.00
2023-05-14T22:06:08.593Z,100.00
2023-05-14T22:08:35.265Z,100.00
2023-05-14T22:11:01.863Z,100.00
2023-05-14T22:13:28.645Z,100.00
2023-05-14T22:16:05.299Z,100.00
2023-05-14T22:18:36.662Z,100.00
2023-05-14T22:21:03.716Z,100.00
2023-05-14T22:23:30.649Z,100.00
2023-05-14T22:25:58.023Z,100.00
2023-05-14T22:28:24.732Z,100.00
2023-05-14T22:30:51.293Z,100.00
2023-05-14T22:33:19.394Z,100.00
2023-05-14T22:35:46.177Z,100.00
2023-05-14T22:38:13.616Z,100.00
2023-05-14T22:40:40.209Z,100.00
2023-05-14T22:43:06.826Z,100.00
2023-05-14T22:45:33.481Z,100.00
2023-05-14T22:48:00.339Z,100.00
2023-05-14T22:50:27.051Z,100.00
2023-05-14T22:52:53.659Z,100.00
2023-05-14T22:55:20.292Z,100.00
2023-05-14T22:57:46.961Z,100.00
2023-05-14T23:00:14.113Z,100.00
2023-05-14T23:02:40.812Z,100.00
2023-05-14T23:05:08.511Z,100.00
2023-05-14T23:07:35.328Z,100.00
2023-05-14T23:10:02.022Z,100.00
2023-05-14T23:12:28.643Z,100.00
2023-05-14T23:14:55.523Z,100.00
2023-05-14T23:17:22.190Z,100.00
2023-05-14T23:19:48.876Z,100.00
2023-05-14T23:22:15.618Z,100.00
2023-05-14T23:24:42.234Z,100.00
2023-05-14T23:27:08.863Z,100.00
2023-05-14T23:29:35.661Z,100.00
2023-05-14T23:32:02.417Z,100.00
2023-05-14T23:34:29.018Z,100.00
2023-05-14T23:36:55.985Z,100.00
2023-05-14T23:39:22.778Z,100.00
2023-05-14T23:41:49.481Z,100.00
2023-05-14T23:44:16.158Z,100.00
2023-05-14T23:46:42.835Z,100.00
2023-05-14T23:49:09.494Z,100.00
2023-05-14T23:51:37.756Z,100.00
2023-05-14T23:54:04.666Z,100.00
2023-05-14T23:56:31.774Z,100.00
2023-05-14T23:58:58.372Z,100.00
